sensor_id;sensor_type;location;lat;lon;timestamp;temperature;humidity
47618;DHT22;33336;36.728;-4.414;2022-11-15T00:04:55;20.40;92.30
47618;DHT22;33336;36.728;-4.414;2022-11-15T00:09:58;20.20;92.50
47618;DHT22;33336;36.728;-4.414;2022-11-15T00:15:01;20.20;92.50
47618;DHT22;33336;36.728;-4.414;2022-11-15T00:20:06;20.20;92.50
47618;DHT22;33336;36.728;-4.414;2022-11-15T00:25:10;20.20;92.50
47618;DHT22;33336;36.728;-4.414;2022-11-15T00:30:13;20.20;92.50
47618;DHT22;33336;36.728;-4.414;2022-11-15T00:35:17;20.30;92.40
47618;DHT22;33336;36.728;-4.414;2022-11-15T00:40:20;20.20;92.40
47618;DHT22;33336;36.728;-4.414;2022-11-15T00:45:24;20.10;92.60
47618;DHT22;33336;36.728;-4.414;2022-11-15T00:50:28;20.00;92.80
47618;DHT22;33336;36.728;-4.414;2022-11-15T00:55:32;19.70;93.20
47618;DHT22;33336;36.728;-4.414;2022-11-15T01:00:35;20.00;92.70
47618;DHT22;33336;36.728;-4.414;2022-11-15T01:05:39;20.20;92.60
47618;DHT22;33336;36.728;-4.414;2022-11-15T01:10:44;20.00;92.80
47618;DHT22;33336;36.728;-4.414;2022-11-15T01:15:47;20.00;93.10
47618;DHT22;33336;36.728;-4.414;2022-11-15T01:20:52;20.00;93.00
47618;DHT22;33336;36.728;-4.414;2022-11-15T01:25:58;19.70;93.50
47618;DHT22;33336;36.728;-4.414;2022-11-15T01:31:03;19.80;93.30
47618;DHT22;33336;36.728;-4.414;2022-11-15T01:36:11;19.70;93.50
47618;DHT22;33336;36.728;-4.414;2022-11-15T01:41:16;19.80;93.20
47618;DHT22;33336;36.728;-4.414;2022-11-15T01:46:25;20.10;92.90
47618;DHT22;33336;36.728;-4.414;2022-11-15T01:51:33;20.00;93.10
47618;DHT22;33336;36.728;-4.414;2022-11-15T01:56:40;19.90;93.30
47618;DHT22;33336;36.728;-4.414;2022-11-15T02:01:46;19.70;93.50
47618;DHT22;33336;36.728;-4.414;2022-11-15T02:06:50;19.70;93.70
47618;DHT22;33336;36.728;-4.414;2022-11-15T02:11:54;19.70;93.80
47618;DHT22;33336;36.728;-4.414;2022-11-15T02:17:01;19.80;93.60
47618;DHT22;33336;36.728;-4.414;2022-11-15T02:22:16;19.80;93.60
47618;DHT22;33336;36.728;-4.414;2022-11-15T02:27:40;19.50;94.40
47618;DHT22;33336;36.728;-4.414;2022-11-15T02:32:52;19.60;94.30
47618;DHT22;33336;36.728;-4.414;2022-11-15T02:37:58;19.50;94.30
47618;DHT22;33336;36.728;-4.414;2022-11-15T02:43:06;19.50;94.60
47618;DHT22;33336;36.728;-4.414;2022-11-15T02:48:30;19.30;94.80
47618;DHT22;33336;36.728;-4.414;2022-11-15T02:53:35;19.00;95.20
47618;DHT22;33336;36.728;-4.414;2022-11-15T02:58:52;19.30;94.80
47618;DHT22;33336;36.728;-4.414;2022-11-15T03:04:13;19.20;95.00
47618;DHT22;33336;36.728;-4.414;2022-11-15T03:09:28;19.10;95.10
47618;DHT22;33336;36.728;-4.414;2022-11-15T03:14:35;19.40;94.80
47618;DHT22;33336;36.728;-4.414;2022-11-15T03:19:44;19.60;94.90
47618;DHT22;33336;36.728;-4.414;2022-11-15T03:24:53;19.60;95.00
47618;DHT22;33336;36.728;-4.414;2022-11-15T03:30:00;19.70;95.00
47618;DHT22;33336;36.728;-4.414;2022-11-15T03:35:08;19.80;95.00
47618;DHT22;33336;36.728;-4.414;2022-11-15T03:40:12;19.80;94.90
47618;DHT22;33336;36.728;-4.414;2022-11-15T03:45:19;19.80;95.00
47618;DHT22;33336;36.728;-4.414;2022-11-15T03:50:26;20.00;94.80
47618;DHT22;33336;36.728;-4.414;2022-11-15T03:55:32;20.00;94.70
47618;DHT22;33336;36.728;-4.414;2022-11-15T04:00:35;19.90;94.80
47618;DHT22;33336;36.728;-4.414;2022-11-15T04:05:39;19.70;95.00
47618;DHT22;33336;36.728;-4.414;2022-11-15T04:10:42;19.50;95.20
47618;DHT22;33336;36.728;-4.414;2022-11-15T04:15:45;19.40;95.60
47618;DHT22;33336;36.728;-4.414;2022-11-15T04:20:49;19.10;95.90
47618;DHT22;33336;36.728;-4.414;2022-11-15T04:26:11;19.20;95.90
47618;DHT22;33336;36.728;-4.414;2022-11-15T04:31:14;19.10;96.20
47618;DHT22;33336;36.728;-4.414;2022-11-15T04:36:19;19.00;96.40
47618;DHT22;33336;36.728;-4.414;2022-11-15T04:41:40;19.30;96.00
47618;DHT22;33336;36.728;-4.414;2022-11-15T04:46:43;19.10;96.40
47618;DHT22;33336;36.728;-4.414;2022-11-15T04:51:47;19.00;96.50
47618;DHT22;33336;36.728;-4.414;2022-11-15T04:56:51;19.00;96.60
47618;DHT22;33336;36.728;-4.414;2022-11-15T05:01:53;18.90;96.90
47618;DHT22;33336;36.728;-4.414;2022-11-15T05:06:58;18.60;97.40
47618;DHT22;33336;36.728;-4.414;2022-11-15T05:12:01;18.80;97.00
47618;DHT22;33336;36.728;-4.414;2022-11-15T05:17:05;18.90;97.00
47618;DHT22;33336;36.728;-4.414;2022-11-15T05:22:09;19.10;96.60
47618;DHT22;33336;36.728;-4.414;2022-11-15T05:27:13;19.20;96.40
47618;DHT22;33336;36.728;-4.414;2022-11-15T05:32:16;19.00;96.60
47618;DHT22;33336;36.728;-4.414;2022-11-15T05:37:22;18.60;97.50
47618;DHT22;33336;36.728;-4.414;2022-11-15T05:42:26;18.70;97.60
47618;DHT22;33336;36.728;-4.414;2022-11-15T05:47:31;18.80;97.30
47618;DHT22;33336;36.728;-4.414;2022-11-15T05:52:37;19.20;96.80
47618;DHT22;33336;36.728;-4.414;2022-11-15T05:57:41;18.90;97.30
47618;DHT22;33336;36.728;-4.414;2022-11-15T06:02:44;19.00;97.10
47618;DHT22;33336;36.728;-4.414;2022-11-15T06:07:48;19.20;96.80
47618;DHT22;33336;36.728;-4.414;2022-11-15T06:12:56;19.20;96.80
47618;DHT22;33336;36.728;-4.414;2022-11-15T06:18:00;19.30;96.60
47618;DHT22;33336;36.728;-4.414;2022-11-15T06:23:04;19.10;96.80
47618;DHT22;33336;36.728;-4.414;2022-11-15T06:28:08;19.20;96.80
47618;DHT22;33336;36.728;-4.414;2022-11-15T06:33:10;19.20;96.80
47618;DHT22;33336;36.728;-4.414;2022-11-15T06:38:15;19.30;96.60
47618;DHT22;33336;36.728;-4.414;2022-11-15T06:43:18;19.40;96.40
47618;DHT22;33336;36.728;-4.414;2022-11-15T06:48:22;19.10;96.70
47618;DHT22;33336;36.728;-4.414;2022-11-15T06:53:26;19.00;96.80
47618;DHT22;33336;36.728;-4.414;2022-11-15T06:58:30;19.00;97.10
47618;DHT22;33336;36.728;-4.414;2022-11-15T07:03:34;19.10;96.80
47618;DHT22;33336;36.728;-4.414;2022-11-15T07:08:40;19.00;96.90
47618;DHT22;33336;36.728;-4.414;2022-11-15T07:13:44;19.20;96.70
47618;DHT22;33336;36.728;-4.414;2022-11-15T07:18:47;19.20;96.80
47618;DHT22;33336;36.728;-4.414;2022-11-15T07:23:51;19.30;96.80
47618;DHT22;33336;36.728;-4.414;2022-11-15T07:28:55;19.60;96.40
47618;DHT22;33336;36.728;-4.414;2022-11-15T07:33:57;19.70;96.20
47618;DHT22;33336;36.728;-4.414;2022-11-15T07:39:02;19.70;96.40
47618;DHT22;33336;36.728;-4.414;2022-11-15T07:44:06;19.90;96.00
47618;DHT22;33336;36.728;-4.414;2022-11-15T07:49:10;20.00;95.80
47618;DHT22;33336;36.728;-4.414;2022-11-15T07:54:14;20.20;95.60
47618;DHT22;33336;36.728;-4.414;2022-11-15T07:59:17;20.30;95.50
47618;DHT22;33336;36.728;-4.414;2022-11-15T08:04:20;20.40;95.40
47618;DHT22;33336;36.728;-4.414;2022-11-15T08:09:25;20.20;95.60
47618;DHT22;33336;36.728;-4.414;2022-11-15T08:14:28;20.10;95.90
47618;DHT22;33336;36.728;-4.414;2022-11-15T08:19:31;20.10;95.90
47618;DHT22;33336;36.728;-4.414;2022-11-15T08:24:35;20.10;96.10
47618;DHT22;33336;36.728;-4.414;2022-11-15T08:29:38;20.50;95.80
47618;DHT22;33336;36.728;-4.414;2022-11-15T08:34:40;20.60;95.40
47618;DHT22;33336;36.728;-4.414;2022-11-15T08:39:45;20.70;95.30
47618;DHT22;33336;36.728;-4.414;2022-11-15T08:44:48;20.90;95.20
47618;DHT22;33336;36.728;-4.414;2022-11-15T08:49:52;20.70;95.10
47618;DHT22;33336;36.728;-4.414;2022-11-15T08:54:56;20.80;95.00
47618;DHT22;33336;36.728;-4.414;2022-11-15T08:59:59;20.70;95.10
47618;DHT22;33336;36.728;-4.414;2022-11-15T09:05:01;20.80;94.90
47618;DHT22;33336;36.728;-4.414;2022-11-15T09:10:07;20.90;95.00
47618;DHT22;33336;36.728;-4.414;2022-11-15T09:15:10;21.10;94.70
47618;DHT22;33336;36.728;-4.414;2022-11-15T09:20:14;21.30;94.30
47618;DHT22;33336;36.728;-4.414;2022-11-15T09:25:18;21.30;94.30
47618;DHT22;33336;36.728;-4.414;2022-11-15T09:30:21;21.20;94.30
47618;DHT22;33336;36.728;-4.414;2022-11-15T09:35:24;21.10;94.30
47618;DHT22;33336;36.728;-4.414;2022-11-15T09:40:30;20.80;94.40
47618;DHT22;33336;36.728;-4.414;2022-11-15T09:45:39;20.90;94.40
47618;DHT22;33336;36.728;-4.414;2022-11-15T09:50:48;21.10;94.40
47618;DHT22;33336;36.728;-4.414;2022-11-15T09:55:57;21.40;94.00
47618;DHT22;33336;36.728;-4.414;2022-11-15T10:01:06;22.00;93.50
47618;DHT22;33336;36.728;-4.414;2022-11-15T10:06:17;21.80;93.50
47618;DHT22;33336;36.728;-4.414;2022-11-15T10:11:29;22.30;93.60
47618;DHT22;33336;36.728;-4.414;2022-11-15T10:16:53;22.50;92.80
47618;DHT22;33336;36.728;-4.414;2022-11-15T10:22:12;23.10;92.40
47618;DHT22;33336;36.728;-4.414;2022-11-15T10:27:20;23.30;92.00
47618;DHT22;33336;36.728;-4.414;2022-11-15T10:32:24;23.60;92.10
47618;DHT22;33336;36.728;-4.414;2022-11-15T10:37:28;23.90;92.00
47618;DHT22;33336;36.728;-4.414;2022-11-15T10:42:33;24.40;92.10
47618;DHT22;33336;36.728;-4.414;2022-11-15T10:47:36;25.00;91.60
47618;DHT22;33336;36.728;-4.414;2022-11-15T10:52:45;25.20;91.60
47618;DHT22;33336;36.728;-4.414;2022-11-15T10:57:52;25.20;91.80
47618;DHT22;33336;36.728;-4.414;2022-11-15T11:03:00;24.50;92.80
47618;DHT22;33336;36.728;-4.414;2022-11-15T11:08:09;24.30;93.10
47618;DHT22;33336;36.728;-4.414;2022-11-15T11:13:24;24.00;93.90
47618;DHT22;33336;36.728;-4.414;2022-11-15T11:18:31;24.10;93.80
47618;DHT22;33336;36.728;-4.414;2022-11-15T11:23:45;23.70;93.60
47618;DHT22;33336;36.728;-4.414;2022-11-15T11:28:58;24.60;92.80
47618;DHT22;33336;36.728;-4.414;2022-11-15T11:34:13;24.90;92.10
47618;DHT22;33336;36.728;-4.414;2022-11-15T11:39:24;24.60;92.10
47618;DHT22;33336;36.728;-4.414;2022-11-15T11:44:43;25.10;92.10
47618;DHT22;33336;36.728;-4.414;2022-11-15T11:49:51;25.50;91.90
47618;DHT22;33336;36.728;-4.414;2022-11-15T11:55:01;25.70;91.60
47618;DHT22;33336;36.728;-4.414;2022-11-15T12:00:16;25.70;91.80
47618;DHT22;33336;36.728;-4.414;2022-11-15T12:05:28;25.00;92.50
47618;DHT22;33336;36.728;-4.414;2022-11-15T12:10:33;25.40;92.70
47618;DHT22;33336;36.728;-4.414;2022-11-15T12:15:43;25.80;92.40
47618;DHT22;33336;36.728;-4.414;2022-11-15T12:20:52;26.30;91.90
47618;DHT22;33336;36.728;-4.414;2022-11-15T12:26:00;25.80;92.00
47618;DHT22;33336;36.728;-4.414;2022-11-15T12:31:10;25.80;92.00
47618;DHT22;33336;36.728;-4.414;2022-11-15T12:36:34;26.10;92.30
47618;DHT22;33336;36.728;-4.414;2022-11-15T12:41:38;26.30;92.60
47618;DHT22;33336;36.728;-4.414;2022-11-15T12:47:04;26.20;92.60
47618;DHT22;33336;36.728;-4.414;2022-11-15T12:52:08;25.40;92.40
47618;DHT22;33336;36.728;-4.414;2022-11-15T12:57:34;25.60;93.00
47618;DHT22;33336;36.728;-4.414;2022-11-15T13:02:40;25.80;92.10
47618;DHT22;33336;36.728;-4.414;2022-11-15T13:07:58;25.50;92.80
47618;DHT22;33336;36.728;-4.414;2022-11-15T13:13:02;25.30;93.50
47618;DHT22;33336;36.728;-4.414;2022-11-15T13:18:28;25.40;93.30
47618;DHT22;33336;36.728;-4.414;2022-11-15T13:23:31;25.30;93.80
47618;DHT22;33336;36.728;-4.414;2022-11-15T13:28:37;26.00;93.20
47618;DHT22;33336;36.728;-4.414;2022-11-15T13:33:42;26.00;92.60
47618;DHT22;33336;36.728;-4.414;2022-11-15T13:38:54;25.60;93.00
47618;DHT22;33336;36.728;-4.414;2022-11-15T13:43:58;25.80;93.40
47618;DHT22;33336;36.728;-4.414;2022-11-15T13:49:07;26.50;92.10
47618;DHT22;33336;36.728;-4.414;2022-11-15T13:54:18;26.70;92.10
47618;DHT22;33336;36.728;-4.414;2022-11-15T13:59:25;27.30;91.40
47618;DHT22;33336;36.728;-4.414;2022-11-15T14:04:30;27.40;91.20
47618;DHT22;33336;36.728;-4.414;2022-11-15T14:09:37;27.20;91.50
47618;DHT22;33336;36.728;-4.414;2022-11-15T14:14:45;28.10;90.90
47618;DHT22;33336;36.728;-4.414;2022-11-15T14:19:50;28.70;90.20
47618;DHT22;33336;36.728;-4.414;2022-11-15T14:25:15;29.90;90.00
47618;DHT22;33336;36.728;-4.414;2022-11-15T14:30:19;31.00;85.30
47618;DHT22;33336;36.728;-4.414;2022-11-15T14:35:23;30.30;88.20
47618;DHT22;33336;36.728;-4.414;2022-11-15T14:40:26;28.60;88.60
47618;DHT22;33336;36.728;-4.414;2022-11-15T14:45:29;28.60;89.70
47618;DHT22;33336;36.728;-4.414;2022-11-15T14:50:35;30.10;88.90
47618;DHT22;33336;36.728;-4.414;2022-11-15T14:55:38;29.40;87.40
47618;DHT22;33336;36.728;-4.414;2022-11-15T15:00:41;30.50;86.30
47618;DHT22;33336;36.728;-4.414;2022-11-15T15:05:46;30.00;86.40
47618;DHT22;33336;36.728;-4.414;2022-11-15T15:10:48;29.30;86.50
47618;DHT22;33336;36.728;-4.414;2022-11-15T15:15:52;29.20;86.10
47618;DHT22;33336;36.728;-4.414;2022-11-15T15:20:58;27.70;88.10
47618;DHT22;33336;36.728;-4.414;2022-11-15T15:26:04;27.30;89.30
47618;DHT22;33336;36.728;-4.414;2022-11-15T15:31:08;27.80;90.00
47618;DHT22;33336;36.728;-4.414;2022-11-15T15:36:14;26.70;90.80
47618;DHT22;33336;36.728;-4.414;2022-11-15T15:41:19;26.20;91.30
47618;DHT22;33336;36.728;-4.414;2022-11-15T15:46:22;26.10;91.70
47618;DHT22;33336;36.728;-4.414;2022-11-15T15:51:27;25.40;93.20
47618;DHT22;33336;36.728;-4.414;2022-11-15T15:56:30;24.50;94.30
47618;DHT22;33336;36.728;-4.414;2022-11-15T16:01:32;24.40;94.70
47618;DHT22;33336;36.728;-4.414;2022-11-15T16:06:38;24.00;95.10
47618;DHT22;33336;36.728;-4.414;2022-11-15T16:11:45;23.70;95.70
47618;DHT22;33336;36.728;-4.414;2022-11-15T16:16:48;23.80;96.20
47618;DHT22;33336;36.728;-4.414;2022-11-15T16:21:53;23.70;96.50
47618;DHT22;33336;36.728;-4.414;2022-11-15T16:26:56;23.60;96.60
47618;DHT22;33336;36.728;-4.414;2022-11-15T16:31:58;23.50;97.10
47618;DHT22;33336;36.728;-4.414;2022-11-15T16:37:03;23.40;96.90
47618;DHT22;33336;36.728;-4.414;2022-11-15T16:42:05;22.80;98.10
47618;DHT22;33336;36.728;-4.414;2022-11-15T16:47:15;22.30;99.20
47618;DHT22;33336;36.728;-4.414;2022-11-15T16:52:21;22.70;98.50
47618;DHT22;33336;36.728;-4.414;2022-11-15T16:57:24;23.30;97.40
47618;DHT22;33336;36.728;-4.414;2022-11-15T17:02:27;23.70;96.80
47618;DHT22;33336;36.728;-4.414;2022-11-15T17:07:31;23.80;96.70
47618;DHT22;33336;36.728;-4.414;2022-11-15T17:12:35;23.50;97.10
47618;DHT22;33336;36.728;-4.414;2022-11-15T17:17:38;23.50;97.20
47618;DHT22;33336;36.728;-4.414;2022-11-15T17:22:43;23.60;97.10
47618;DHT22;33336;36.728;-4.414;2022-11-15T17:27:47;23.70;96.70
47618;DHT22;33336;36.728;-4.414;2022-11-15T17:32:50;23.70;96.50
47618;DHT22;33336;36.728;-4.414;2022-11-15T17:37:55;23.30;96.90
47618;DHT22;33336;36.728;-4.414;2022-11-15T17:42:58;23.40;96.60
47618;DHT22;33336;36.728;-4.414;2022-11-15T17:48:01;23.60;96.20
47618;DHT22;33336;36.728;-4.414;2022-11-15T17:53:06;23.70;94.70
47618;DHT22;33336;36.728;-4.414;2022-11-15T17:58:10;23.40;93.30
47618;DHT22;33336;36.728;-4.414;2022-11-15T18:03:14;23.20;91.80
47618;DHT22;33336;36.728;-4.414;2022-11-15T18:08:18;23.20;91.50
47618;DHT22;33336;36.728;-4.414;2022-11-15T18:13:23;23.30;91.10
47618;DHT22;33336;36.728;-4.414;2022-11-15T18:18:26;23.10;91.10
47618;DHT22;33336;36.728;-4.414;2022-11-15T18:23:32;23.10;90.50
47618;DHT22;33336;36.728;-4.414;2022-11-15T18:28:37;23.20;90.70
47618;DHT22;33336;36.728;-4.414;2022-11-15T18:33:41;22.90;91.10
47618;DHT22;33336;36.728;-4.414;2022-11-15T18:38:45;22.70;91.30
47618;DHT22;33336;36.728;-4.414;2022-11-15T18:43:48;22.70;91.50
47618;DHT22;33336;36.728;-4.414;2022-11-15T18:48:52;22.80;91.50
47618;DHT22;33336;36.728;-4.414;2022-11-15T18:53:59;22.70;91.70
47618;DHT22;33336;36.728;-4.414;2022-11-15T18:59:03;22.60;91.90
47618;DHT22;33336;36.728;-4.414;2022-11-15T19:04:08;22.40;92.30
47618;DHT22;33336;36.728;-4.414;2022-11-15T19:09:14;22.20;92.60
47618;DHT22;33336;36.728;-4.414;2022-11-15T19:14:17;22.30;92.40
47618;DHT22;33336;36.728;-4.414;2022-11-15T19:19:25;22.20;92.70
47618;DHT22;33336;36.728;-4.414;2022-11-15T19:24:31;22.50;92.30
47618;DHT22;33336;36.728;-4.414;2022-11-15T19:29:34;22.50;92.20
47618;DHT22;33336;36.728;-4.414;2022-11-15T19:34:41;22.60;92.00
47618;DHT22;33336;36.728;-4.414;2022-11-15T19:39:46;22.70;91.80
47618;DHT22;33336;36.728;-4.414;2022-11-15T19:44:49;22.60;91.90
47618;DHT22;33336;36.728;-4.414;2022-11-15T19:49:52;22.40;92.20
47618;DHT22;33336;36.728;-4.414;2022-11-15T19:54:57;21.90;93.90
47618;DHT22;33336;36.728;-4.414;2022-11-15T20:00:00;21.60;95.10
47618;DHT22;33336;36.728;-4.414;2022-11-15T20:05:05;21.40;96.30
47618;DHT22;33336;36.728;-4.414;2022-11-15T20:10:11;21.30;97.30
47618;DHT22;33336;36.728;-4.414;2022-11-15T20:15:14;21.30;98.00
47618;DHT22;33336;36.728;-4.414;2022-11-15T20:20:17;21.00;99.80
47618;DHT22;33336;36.728;-4.414;2022-11-15T20:25:22;20.80;99.90
47618;DHT22;33336;36.728;-4.414;2022-11-15T20:30:30;20.80;99.90
47618;DHT22;33336;36.728;-4.414;2022-11-15T20:35:33;21.00;99.90
47618;DHT22;33336;36.728;-4.414;2022-11-15T20:40:38;21.30;99.20
47618;DHT22;33336;36.728;-4.414;2022-11-15T20:45:42;21.00;99.90
47618;DHT22;33336;36.728;-4.414;2022-11-15T20:50:45;21.00;99.90
47618;DHT22;33336;36.728;-4.414;2022-11-15T20:55:50;21.10;99.90
47618;DHT22;33336;36.728;-4.414;2022-11-15T21:00:56;21.50;99.20
47618;DHT22;33336;36.728;-4.414;2022-11-15T21:05:59;21.70;98.70
47618;DHT22;33336;36.728;-4.414;2022-11-15T21:11:04;21.80;98.40
47618;DHT22;33336;36.728;-4.414;2022-11-15T21:16:24;21.80;98.30
47618;DHT22;33336;36.728;-4.414;2022-11-15T21:21:27;21.90;98.10
47618;DHT22;33336;36.728;-4.414;2022-11-15T21:26:31;21.90;98.30
47618;DHT22;33336;36.728;-4.414;2022-11-15T21:31:34;21.90;98.90
47618;DHT22;33336;36.728;-4.414;2022-11-15T21:36:37;22.00;99.10
47618;DHT22;33336;36.728;-4.414;2022-11-15T21:41:42;21.80;99.50
47618;DHT22;33336;36.728;-4.414;2022-11-15T21:46:44;21.70;99.60
47618;DHT22;33336;36.728;-4.414;2022-11-15T21:51:48;21.80;99.60
47618;DHT22;33336;36.728;-4.414;2022-11-15T21:56:52;21.80;99.90
47618;DHT22;33336;36.728;-4.414;2022-11-15T22:01:56;21.80;99.70
47618;DHT22;33336;36.728;-4.414;2022-11-15T22:07:17;21.60;99.90
47618;DHT22;33336;36.728;-4.414;2022-11-15T22:12:22;21.50;99.90
47618;DHT22;33336;36.728;-4.414;2022-11-15T22:17:24;21.70;99.70
47618;DHT22;33336;36.728;-4.414;2022-11-15T22:22:48;21.60;99.70
47618;DHT22;33336;36.728;-4.414;2022-11-15T22:27:53;21.60;99.60
47618;DHT22;33336;36.728;-4.414;2022-11-15T22:32:56;21.60;99.40
47618;DHT22;33336;36.728;-4.414;2022-11-15T22:37:58;21.60;99.70
47618;DHT22;33336;36.728;-4.414;2022-11-15T22:43:03;21.50;99.90
47618;DHT22;33336;36.728;-4.414;2022-11-15T22:48:06;21.60;99.90
47618;DHT22;33336;36.728;-4.414;2022-11-15T22:53:09;21.50;99.90
47618;DHT22;33336;36.728;-4.414;2022-11-15T22:58:15;21.60;99.90
47618;DHT22;33336;36.728;-4.414;2022-11-15T23:03:18;21.20;99.90
47618;DHT22;33336;36.728;-4.414;2022-11-15T23:08:22;21.40;99.90
47618;DHT22;33336;36.728;-4.414;2022-11-15T23:13:29;21.40;99.90
47618;DHT22;33336;36.728;-4.414;2022-11-15T23:18:33;21.40;99.90
47618;DHT22;33336;36.728;-4.414;2022-11-15T23:23:36;21.10;99.90
47618;DHT22;33336;36.728;-4.414;2022-11-15T23:28:41;21.20;99.80
47618;DHT22;33336;36.728;-4.414;2022-11-15T23:33:43;21.40;99.60
47618;DHT22;33336;36.728;-4.414;2022-11-15T23:38:58;21.30;99.60
47618;DHT22;33336;36.728;-4.414;2022-11-15T23:44:04;21.20;99.60
47618;DHT22;33336;36.728;-4.414;2022-11-15T23:49:07;21.10;99.90
47618;DHT22;33336;36.728;-4.414;2022-11-15T23:54:10;21.20;99.80
47618;DHT22;33336;36.728;-4.414;2022-11-15T23:59:16;21.30;99.70
